sensor_id;sensor_type;location;lat;lon;timestamp;pressure;altitude;pressure_sealevel;temperature;humidity
38780;BME280;29273;49.962;9.768;2024-02-26T00:01:26;98130.94;;;8.09;53.77
38780;BME280;29273;49.962;9.768;2024-02-26T00:03:52;98131.97;;;8.08;53.79
38780;BME280;29273;49.962;9.768;2024-02-26T00:06:17;98126.69;;;8.08;53.74
38780;BME280;29273;49.962;9.768;2024-02-26T00:08:44;98120.59;;;8.07;53.59
38780;BME280;29273;49.962;9.768;2024-02-26T00:11:09;98116.59;;;8.05;53.65
38780;BME280;29273;49.962;9.768;2024-02-26T00:13:35;98117.41;;;8.05;53.69
38780;BME280;29273;49.962;9.768;2024-02-26T00:16:02;98117.41;;;8.05;53.66
38780;BME280;29273;49.962;9.768;2024-02-26T00:18:28;98110.50;;;8.04;53.69
38780;BME280;29273;49.962;9.768;2024-02-26T00:20:53;98109.94;;;8.02;53.74
38780;BME280;29273;49.962;9.768;2024-02-26T00:23:19;98099.63;;;8.01;53.75
38780;BME280;29273;49.962;9.768;2024-02-26T00:25:44;98104.09;;;8.00;53.77
38780;BME280;29273;49.962;9.768;2024-02-26T00:28:10;98102.69;;;7.97;53.68
38780;BME280;29273;49.962;9.768;2024-02-26T00:30:36;98095.03;;;7.96;53.84
38780;BME280;29273;49.962;9.768;2024-02-26T00:33:01;98090.00;;;7.94;53.96
38780;BME280;29273;49.962;9.768;2024-02-26T00:35:27;98090.78;;;7.95;53.99
38780;BME280;29273;49.962;9.768;2024-02-26T00:37:52;98091.81;;;7.94;54.30
38780;BME280;29273;49.962;9.768;2024-02-26T00:40:18;98090.00;;;7.94;54.11
38780;BME280;29273;49.962;9.768;2024-02-26T00:42:43;98093.44;;;7.95;54.09
38780;BME280;29273;49.962;9.768;2024-02-26T00:45:14;98083.22;;;7.99;54.02
38780;BME280;29273;49.962;9.768;2024-02-26T00:47:40;98094.22;;;7.95;54.21
38780;BME280;29273;49.962;9.768;2024-02-26T00:50:07;98090.00;;;7.94;54.13
38780;BME280;29273;49.962;9.768;2024-02-26T00:52:34;98090.78;;;7.95;54.22
38780;BME280;29273;49.962;9.768;2024-02-26T00:54:59;98096.28;;;7.93;54.23
38780;BME280;29273;49.962;9.768;2024-02-26T00:57:25;98097.09;;;7.94;53.82
38780;BME280;29273;49.962;9.768;2024-02-26T00:59:50;98093.09;;;7.91;53.67
38780;BME280;29273;49.962;9.768;2024-02-26T01:02:16;98095.16;;;7.89;53.72
38780;BME280;29273;49.962;9.768;2024-02-26T01:04:41;98105.91;;;7.88;53.75
38780;BME280;29273;49.962;9.768;2024-02-26T01:07:08;98098.22;;;7.86;53.50
38780;BME280;29273;49.962;9.768;2024-02-26T01:09:34;98102.34;;;7.82;53.54
38780;BME280;29273;49.962;9.768;2024-02-26T01:11:59;98104.41;;;7.80;53.55
38780;BME280;29273;49.962;9.768;2024-02-26T01:14:25;98099.56;;;7.77;53.63
38780;BME280;29273;49.962;9.768;2024-02-26T01:16:50;98100.00;;;7.74;53.52
38780;BME280;29273;49.962;9.768;2024-02-26T01:19:16;98099.44;;;7.72;53.49
38780;BME280;29273;49.962;9.768;2024-02-26T01:21:41;98091.19;;;7.68;53.56
38780;BME280;29273;49.962;9.768;2024-02-26T01:24:07;98094.84;;;7.67;53.51
38780;BME280;29273;49.962;9.768;2024-02-26T01:26:32;98102.19;;;7.65;53.50
38780;BME280;29273;49.962;9.768;2024-02-26T01:28:58;98092.09;;;7.62;53.51
38780;BME280;29273;49.962;9.768;2024-02-26T01:31:23;98101.25;;;7.59;53.70
38780;BME280;29273;49.962;9.768;2024-02-26T01:33:49;98100.66;;;7.57;53.73
38780;BME280;29273;49.962;9.768;2024-02-26T01:36:14;98091.94;;;7.57;53.79
38780;BME280;29273;49.962;9.768;2024-02-26T01:38:40;98094.59;;;7.57;53.82
38780;BME280;29273;49.962;9.768;2024-02-26T01:41:05;98091.59;;;7.53;53.84
38780;BME280;29273;49.962;9.768;2024-02-26T01:43:31;98102.13;;;7.53;53.94
38780;BME280;29273;49.962;9.768;2024-02-26T01:45:58;98102.13;;;7.53;53.90
38780;BME280;29273;49.962;9.768;2024-02-26T01:48:23;98101.13;;;7.54;54.16
38780;BME280;29273;49.962;9.768;2024-02-26T01:50:49;98102.94;;;7.54;54.20
38780;BME280;29273;49.962;9.768;2024-02-26T01:53:16;98106.97;;;7.56;54.24
38780;BME280;29273;49.962;9.768;2024-02-26T01:55:42;98109.59;;;7.56;54.28
38780;BME280;29273;49.962;9.768;2024-02-26T01:58:08;98112.81;;;7.58;54.35
38780;BME280;29273;49.962;9.768;2024-02-26T02:00:34;98118.66;;;7.60;54.50
38780;BME280;29273;49.962;9.768;2024-02-26T02:03:00;98113.94;;;7.63;54.50
38780;BME280;29273;49.962;9.768;2024-02-26T02:05:27;98117.19;;;7.65;54.60
38780;BME280;29273;49.962;9.768;2024-02-26T02:07:53;98120.16;;;7.68;54.68
38780;BME280;29273;49.962;9.768;2024-02-26T02:10:19;98117.31;;;7.70;54.66
38780;BME280;29273;49.962;9.768;2024-02-26T02:12:48;98121.53;;;7.71;54.51
38780;BME280;29273;49.962;9.768;2024-02-26T02:15:14;98125.78;;;7.72;54.63
38780;BME280;29273;49.962;9.768;2024-02-26T02:17:40;98114.25;;;7.73;54.58
38780;BME280;29273;49.962;9.768;2024-02-26T02:20:15;98116.19;;;7.77;54.49
38780;BME280;29273;49.962;9.768;2024-02-26T02:22:41;98109.75;;;7.73;54.70
38780;BME280;29273;49.962;9.768;2024-02-26T02:25:07;98109.75;;;7.73;54.72
38780;BME280;29273;49.962;9.768;2024-02-26T02:27:32;98114.00;;;7.74;54.84
38780;BME280;29273;49.962;9.768;2024-02-26T02:29:58;98114.00;;;7.74;54.95
38780;BME280;29273;49.962;9.768;2024-02-26T02:32:24;98118.00;;;7.77;54.95
38780;BME280;29273;49.962;9.768;2024-02-26T02:34:50;98114.81;;;7.75;55.06
38780;BME280;29273;49.962;9.768;2024-02-26T02:37:16;98114.59;;;7.76;55.04
38780;BME280;29273;49.962;9.768;2024-02-26T02:39:41;98112.19;;;7.75;55.08
38780;BME280;29273;49.962;9.768;2024-02-26T02:42:08;98107.47;;;7.77;55.03
38780;BME280;29273;49.962;9.768;2024-02-26T02:44:34;98107.25;;;7.78;55.18
38780;BME280;29273;49.962;9.768;2024-02-26T02:46:59;98099.56;;;7.77;55.37
38780;BME280;29273;49.962;9.768;2024-02-26T02:49:25;98099.34;;;7.78;55.45
38780;BME280;29273;49.962;9.768;2024-02-26T02:51:51;98089.38;;;7.81;55.13
38780;BME280;29273;49.962;9.768;2024-02-26T02:54:18;98085.72;;;7.82;55.07
38780;BME280;29273;49.962;9.768;2024-02-26T02:56:44;98084.69;;;7.83;55.26
38780;BME280;29273;49.962;9.768;2024-02-26T02:59:09;98085.50;;;7.83;55.32
38780;BME280;29273;49.962;9.768;2024-02-26T03:01:34;98092.97;;;7.86;55.54
38780;BME280;29273;49.962;9.768;2024-02-26T03:04:00;98090.91;;;7.88;55.31
38780;BME280;29273;49.962;9.768;2024-02-26T03:06:25;98089.63;;;7.91;55.32
38780;BME280;29273;49.962;9.768;2024-02-26T03:08:53;98099.72;;;7.94;54.94
38780;BME280;29273;49.962;9.768;2024-02-26T03:11:20;98095.03;;;7.96;54.92
38780;BME280;29273;49.962;9.768;2024-02-26T03:13:45;98086.88;;;7.97;54.96
38780;BME280;29273;49.962;9.768;2024-02-26T03:16:11;98084.84;;;8.00;55.00
38780;BME280;29273;49.962;9.768;2024-02-26T03:18:38;98081.50;;;8.04;54.98
38780;BME280;29273;49.962;9.768;2024-02-26T03:21:04;98079.69;;;8.05;54.89
38780;BME280;29273;49.962;9.768;2024-02-26T03:23:30;98078.66;;;8.06;54.94
38780;BME280;29273;49.962;9.768;2024-02-26T03:25:57;98069.72;;;8.07;54.69
38780;BME280;29273;49.962;9.768;2024-02-26T03:28:23;98068.69;;;8.08;54.66
38780;BME280;29273;49.962;9.768;2024-02-26T03:30:49;98049.66;;;8.06;54.61
38780;BME280;29273;49.962;9.768;2024-02-26T03:33:14;98055.75;;;8.06;54.36
38780;BME280;29273;49.962;9.768;2024-02-26T03:35:39;98050.69;;;8.05;54.26
38780;BME280;29273;49.962;9.768;2024-02-26T03:38:05;98053.34;;;8.05;54.20
38780;BME280;29273;49.962;9.768;2024-02-26T03:40:31;98045.41;;;8.05;53.68
38780;BME280;29273;49.962;9.768;2024-02-26T03:42:56;98046.22;;;8.05;53.66
38780;BME280;29273;49.962;9.768;2024-02-26T03:45:23;98047.25;;;8.04;53.69
38780;BME280;29273;49.962;9.768;2024-02-26T03:47:49;98055.97;;;8.05;53.27
38780;BME280;29273;49.962;9.768;2024-02-26T03:50:14;98057.56;;;8.06;53.43
38780;BME280;29273;49.962;9.768;2024-02-26T03:52:40;98060.19;;;8.06;53.36
38780;BME280;29273;49.962;9.768;2024-02-26T03:55:05;98064.44;;;8.07;53.27
38780;BME280;29273;49.962;9.768;2024-02-26T03:57:31;98066.84;;;8.08;53.56
38780;BME280;29273;49.962;9.768;2024-02-26T03:59:56;98058.72;;;8.10;53.37
38780;BME280;29273;49.962;9.768;2024-02-26T04:02:22;98067.19;;;8.12;53.40
38780;BME280;29273;49.962;9.768;2024-02-26T04:04:48;98078.31;;;8.14;53.24
38780;BME280;29273;49.962;9.768;2024-02-26T04:07:14;98095.75;;;8.15;53.07
38780;BME280;29273;49.962;9.768;2024-02-26T04:09:39;98103.66;;;8.15;53.13
38780;BME280;29273;49.962;9.768;2024-02-26T04:12:05;98099.75;;;8.18;53.20
38780;BME280;29273;49.962;9.768;2024-02-26T04:14:31;98122.47;;;8.19;53.37
38780;BME280;29273;49.962;9.768;2024-02-26T04:16:56;98128.53;;;8.19;53.49
38780;BME280;29273;49.962;9.768;2024-02-26T04:19:22;98111.69;;;8.20;53.24
38780;BME280;29273;49.962;9.768;2024-02-26T04:21:47;98116.50;;;8.23;53.16
38780;BME280;29273;49.962;9.768;2024-02-26T04:24:12;98115.47;;;8.24;53.65
38780;BME280;29273;49.962;9.768;2024-02-26T04:26:38;98116.84;;;8.27;53.83
38780;BME280;29273;49.962;9.768;2024-02-26T04:29:04;98110.78;;;8.26;54.02
38780;BME280;29273;49.962;9.768;2024-02-26T04:31:29;98105.50;;;8.26;54.12
38780;BME280;29273;49.962;9.768;2024-02-26T04:33:58;98114.00;;;8.28;54.27
38780;BME280;29273;49.962;9.768;2024-02-26T04:36:23;98103.22;;;8.30;54.18
38780;BME280;29273;49.962;9.768;2024-02-26T04:38:51;98109.28;;;8.30;54.09
38780;BME280;29273;49.962;9.768;2024-02-26T04:41:16;98109.28;;;8.30;53.99
38780;BME280;29273;49.962;9.768;2024-02-26T04:43:42;98100.34;;;8.31;53.88
38780;BME280;29273;49.962;9.768;2024-02-26T04:46:08;98108.03;;;8.33;53.89
38780;BME280;29273;49.962;9.768;2024-02-26T04:48:34;98103.56;;;8.33;53.98
38780;BME280;29273;49.962;9.768;2024-02-26T04:51:00;98102.78;;;8.33;54.03
38780;BME280;29273;49.962;9.768;2024-02-26T04:53:26;98096.44;;;8.34;53.71
38780;BME280;29273;49.962;9.768;2024-02-26T04:55:52;98096.44;;;8.34;54.02
38780;BME280;29273;49.962;9.768;2024-02-26T04:58:17;98105.41;;;8.33;53.96
38780;BME280;29273;49.962;9.768;2024-02-26T05:00:44;98116.53;;;8.35;53.85
38780;BME280;29273;49.962;9.768;2024-02-26T05:03:09;98106.19;;;8.33;53.88
38780;BME280;29273;49.962;9.768;2024-02-26T05:05:43;98107.38;;;8.38;54.16
38780;BME280;29273;49.962;9.768;2024-02-26T05:08:08;98111.69;;;8.32;53.84
38780;BME280;29273;49.962;9.768;2024-02-26T05:10:34;98118.81;;;8.31;54.16
38780;BME280;29273;49.962;9.768;2024-02-26T05:12:59;98108.03;;;8.33;54.07
38780;BME280;29273;49.962;9.768;2024-02-26T05:15:25;98100.34;;;8.31;54.13
38780;BME280;29273;49.962;9.768;2024-02-26T05:17:50;98112.50;;;8.32;53.77
38780;BME280;29273;49.962;9.768;2024-02-26T05:20:16;98117.19;;;8.30;53.89
38780;BME280;29273;49.962;9.768;2024-02-26T05:22:42;98126.72;;;8.31;53.85
38780;BME280;29273;49.962;9.768;2024-02-26T05:25:07;98124.31;;;8.30;54.06
38780;BME280;29273;49.962;9.768;2024-02-26T05:27:33;98120.88;;;8.29;53.93
38780;BME280;29273;49.962;9.768;2024-02-26T05:29:58;98130.63;;;8.29;54.08
38780;BME280;29273;49.962;9.768;2024-02-26T05:32:24;98132.22;;;8.30;54.14
38780;BME280;29273;49.962;9.768;2024-02-26T05:34:49;98116.63;;;8.28;54.25
38780;BME280;29273;49.962;9.768;2024-02-26T05:37:15;98129.59;;;8.30;54.39
38780;BME280;29273;49.962;9.768;2024-02-26T05:39:40;98127.75;;;8.30;54.35
38780;BME280;29273;49.962;9.768;2024-02-26T05:42:06;98138.31;;;8.30;54.33
38780;BME280;29273;49.962;9.768;2024-02-26T05:44:34;98130.38;;;8.30;54.23
38780;BME280;29273;49.962;9.768;2024-02-26T05:46:59;98134.66;;;8.31;54.04
38780;BME280;29273;49.962;9.768;2024-02-26T05:49:25;98142.56;;;8.31;54.20
38780;BME280;29273;49.962;9.768;2024-02-26T05:51:50;98134.66;;;8.31;54.33
38780;BME280;29273;49.962;9.768;2024-02-26T05:54:16;98138.31;;;8.30;54.13
38780;BME280;29273;49.962;9.768;2024-02-26T05:56:41;98137.50;;;8.30;54.31
38780;BME280;29273;49.962;9.768;2024-02-26T05:59:07;98142.78;;;8.30;54.06
38780;BME280;29273;49.962;9.768;2024-02-26T06:01:33;98139.34;;;8.29;54.20
38780;BME280;29273;49.962;9.768;2024-02-26T06:03:59;98140.16;;;8.30;54.13
38780;BME280;29273;49.962;9.768;2024-02-26T06:06:24;98143.81;;;8.29;54.18
38780;BME280;29273;49.962;9.768;2024-02-26T06:08:50;98144.63;;;8.29;54.25
38780;BME280;29273;49.962;9.768;2024-02-26T06:11:16;98148.28;;;8.28;54.06
38780;BME280;29273;49.962;9.768;2024-02-26T06:13:41;98143.00;;;8.28;54.17
38780;BME280;29273;49.962;9.768;2024-02-26T06:16:08;98154.56;;;8.27;54.38
38780;BME280;29273;49.962;9.768;2024-02-26T06:18:33;98156.66;;;8.25;54.41
38780;BME280;29273;49.962;9.768;2024-02-26T06:21:00;98156.06;;;8.23;54.58
38780;BME280;29273;49.962;9.768;2024-02-26T06:23:25;98156.06;;;8.23;54.49
38780;BME280;29273;49.962;9.768;2024-02-26T06:25:51;98166.63;;;8.23;54.60
38780;BME280;29273;49.962;9.768;2024-02-26T06:28:17;98170.84;;;8.24;54.72
38780;BME280;29273;49.962;9.768;2024-02-26T06:30:43;98174.31;;;8.25;54.78
38780;BME280;29273;49.962;9.768;2024-02-26T06:33:08;98182.00;;;8.26;54.84
38780;BME280;29273;49.962;9.768;2024-02-26T06:35:34;98183.59;;;8.27;54.79
38780;BME280;29273;49.962;9.768;2024-02-26T06:37:59;98181.56;;;8.29;54.79
38780;BME280;29273;49.962;9.768;2024-02-26T06:40:25;98189.22;;;8.31;54.84
38780;BME280;29273;49.962;9.768;2024-02-26T06:42:51;98196.09;;;8.32;54.82
38780;BME280;29273;49.962;9.768;2024-02-26T06:45:17;98193.00;;;8.35;54.86
38780;BME280;29273;49.962;9.768;2024-02-26T06:47:43;98204.13;;;8.37;55.00
38780;BME280;29273;49.962;9.768;2024-02-26T06:50:11;98199.44;;;8.39;54.83
38780;BME280;29273;49.962;9.768;2024-02-26T06:52:37;98201.84;;;8.41;54.66
38780;BME280;29273;49.962;9.768;2024-02-26T06:55:02;98202.47;;;8.43;54.78
38780;BME280;29273;49.962;9.768;2024-02-26T06:57:28;98201.44;;;8.44;54.82
38780;BME280;29273;49.962;9.768;2024-02-26T06:59:53;98211.75;;;8.45;54.81
38780;BME280;29273;49.962;9.768;2024-02-26T07:02:19;98209.69;;;8.47;55.05
38780;BME280;29273;49.962;9.768;2024-02-26T07:04:44;98208.44;;;8.50;54.92
38780;BME280;29273;49.962;9.768;2024-02-26T07:07:10;98219.34;;;8.54;54.76
38780;BME280;29273;49.962;9.768;2024-02-26T07:09:36;98220.75;;;8.56;54.64
38780;BME280;29273;49.962;9.768;2024-02-26T07:12:01;98210.75;;;8.58;54.74
38780;BME280;29273;49.962;9.768;2024-02-26T07:14:27;98218.44;;;8.60;54.73
38780;BME280;29273;49.962;9.768;2024-02-26T07:16:53;98219.00;;;8.62;54.74
38780;BME280;29273;49.962;9.768;2024-02-26T07:19:18;98219.00;;;8.62;54.90
38780;BME280;29273;49.962;9.768;2024-02-26T07:21:44;98218.00;;;8.63;54.74
38780;BME280;29273;49.962;9.768;2024-02-26T07:24:09;98230.69;;;8.66;55.04
38780;BME280;29273;49.962;9.768;2024-02-26T07:26:35;98226.25;;;8.66;54.96
38780;BME280;29273;49.962;9.768;2024-02-26T07:29:00;98219.69;;;8.69;55.09
38780;BME280;29273;49.962;9.768;2024-02-26T07:31:26;98217.41;;;8.73;55.22
38780;BME280;29273;49.962;9.768;2024-02-26T07:33:51;98224.88;;;8.76;55.39
38780;BME280;29273;49.962;9.768;2024-02-26T07:36:17;98228.66;;;8.80;55.42
38780;BME280;29273;49.962;9.768;2024-02-26T07:38:42;98216.84;;;8.82;55.38
38780;BME280;29273;49.962;9.768;2024-02-26T07:41:08;98226.94;;;8.85;55.42
38780;BME280;29273;49.962;9.768;2024-02-26T07:43:34;98222.81;;;8.89;55.56
38780;BME280;29273;49.962;9.768;2024-02-26T07:45:59;98225.00;;;8.93;55.74
38780;BME280;29273;49.962;9.768;2024-02-26T07:48:25;98227.78;;;8.98;55.51
38780;BME280;29273;49.962;9.768;2024-02-26T07:50:50;98228.91;;;9.02;55.37
38780;BME280;29273;49.962;9.768;2024-02-26T07:53:16;98225.81;;;9.05;54.95
38780;BME280;29273;49.962;9.768;2024-02-26T07:55:41;98228.56;;;9.10;54.94
38780;BME280;29273;49.962;9.768;2024-02-26T07:58:07;98231.31;;;9.15;54.95
38780;BME280;29273;49.962;9.768;2024-02-26T08:00:32;98242.22;;;9.19;55.10
38780;BME280;29273;49.962;9.768;2024-02-26T08:02:58;98244.16;;;9.23;54.92
38780;BME280;29273;49.962;9.768;2024-02-26T08:05:23;98247.13;;;9.27;55.00
38780;BME280;29273;49.962;9.768;2024-02-26T08:07:50;98251.97;;;9.30;54.84
38780;BME280;29273;49.962;9.768;2024-02-26T08:10:15;98254.94;;;9.34;54.98
38780;BME280;29273;49.962;9.768;2024-02-26T08:12:41;98253.69;;;9.36;54.95
38780;BME280;29273;49.962;9.768;2024-02-26T08:15:07;98249.75;;;9.39;55.00
38780;BME280;29273;49.962;9.768;2024-02-26T08:17:33;98251.94;;;9.42;54.52
38780;BME280;29273;49.962;9.768;2024-02-26T08:19:59;98256.53;;;9.47;55.01
38780;BME280;29273;49.962;9.768;2024-02-26T08:22:25;98254.47;;;9.49;55.31
38780;BME280;29273;49.962;9.768;2024-02-26T08:24:50;98258.50;;;9.51;55.29
38780;BME280;29273;49.962;9.768;2024-02-26T08:27:16;98256.19;;;9.55;54.99
38780;BME280;29273;49.962;9.768;2024-02-26T08:29:41;98256.97;;;9.55;55.21
38780;BME280;29273;49.962;9.768;2024-02-26T08:32:07;98253.09;;;9.58;55.64
38780;BME280;29273;49.962;9.768;2024-02-26T08:34:32;98259.97;;;9.59;55.48
38780;BME280;29273;49.962;9.768;2024-02-26T08:36:58;98251.78;;;9.60;55.40
38780;BME280;29273;49.962;9.768;2024-02-26T08:39:23;98255.25;;;9.61;55.32
38780;BME280;29273;49.962;9.768;2024-02-26T08:41:49;98258.69;;;9.61;55.39
38780;BME280;29273;49.962;9.768;2024-02-26T08:44:15;98270.41;;;9.66;55.67
38780;BME280;29273;49.962;9.768;2024-02-26T08:46:41;98258.81;;;9.67;55.52
38780;BME280;29273;49.962;9.768;2024-02-26T08:49:06;98264.66;;;9.69;55.36
38780;BME280;29273;49.962;9.768;2024-02-26T08:51:32;98266.59;;;9.73;55.61
38780;BME280;29273;49.962;9.768;2024-02-26T08:53:57;98253.72;;;9.77;56.31
38780;BME280;29273;49.962;9.768;2024-02-26T08:56:23;98259.34;;;9.80;56.28
38780;BME280;29273;49.962;9.768;2024-02-26T08:58:48;98263.13;;;9.85;56.33
38780;BME280;29273;49.962;9.768;2024-02-26T09:01:16;98260.34;;;9.91;56.57
38780;BME280;29273;49.962;9.768;2024-02-26T09:03:41;98261.16;;;9.92;56.53
38780;BME280;29273;49.962;9.768;2024-02-26T09:06:07;98276.09;;;9.98;56.50
38780;BME280;29273;49.962;9.768;2024-02-26T09:08:33;98278.03;;;10.03;56.78
38780;BME280;29273;49.962;9.768;2024-02-26T09:10:58;98276.50;;;10.07;56.62
38780;BME280;29273;49.962;9.768;2024-02-26T09:13:24;98276.59;;;10.12;56.96
38780;BME280;29273;49.962;9.768;2024-02-26T09:15:49;98271.63;;;10.15;56.87
38780;BME280;29273;49.962;9.768;2024-02-26T09:18:15;98266.44;;;10.21;56.88
38780;BME280;29273;49.962;9.768;2024-02-26T09:20:41;98264.94;;;10.25;56.80
38780;BME280;29273;49.962;9.768;2024-02-26T09:23:06;98271.34;;;10.29;56.32
38780;BME280;29273;49.962;9.768;2024-02-26T09:25:32;98269.28;;;10.31;56.16
38780;BME280;29273;49.962;9.768;2024-02-26T09:27:59;98269.41;;;10.36;56.39
38780;BME280;29273;49.962;9.768;2024-02-26T09:30:24;98271.00;;;10.37;56.49
38780;BME280;29273;49.962;9.768;2024-02-26T09:32:50;98268.91;;;10.39;56.84
38780;BME280;29273;49.962;9.768;2024-02-26T09:35:16;98274.78;;;10.41;56.18
38780;BME280;29273;49.962;9.768;2024-02-26T09:37:41;98264.75;;;10.43;56.36
38780;BME280;29273;49.962;9.768;2024-02-26T09:40:08;98262.66;;;10.45;55.76
38780;BME280;29273;49.962;9.768;2024-02-26T09:42:37;98274.06;;;10.46;55.68
38780;BME280;29273;49.962;9.768;2024-02-26T09:45:06;98274.72;;;10.53;56.17
38780;BME280;29273;49.962;9.768;2024-02-26T09:47:34;98269.06;;;10.32;56.97
38780;BME280;29273;49.962;9.768;2024-02-26T09:50:01;98264.28;;;10.46;56.29
38780;BME280;29273;49.962;9.768;2024-02-26T09:52:30;98269.19;;;10.54;56.18
38780;BME280;29273;49.962;9.768;2024-02-26T09:54:58;98262.28;;;10.53;55.79
38780;BME280;29273;49.962;9.768;2024-02-26T09:57:25;98262.59;;;10.57;56.38
38780;BME280;29273;49.962;9.768;2024-02-26T09:59:53;98261.88;;;10.62;56.37
38780;BME280;29273;49.962;9.768;2024-02-26T10:02:19;98273.84;;;10.64;56.70
38780;BME280;29273;49.962;9.768;2024-02-26T10:04:47;98274.66;;;10.65;55.84
38780;BME280;29273;49.962;9.768;2024-02-26T10:07:13;98269.69;;;10.68;55.96
38780;BME280;29273;49.962;9.768;2024-02-26T10:09:39;98284.28;;;10.71;56.23
38780;BME280;29273;49.962;9.768;2024-02-26T10:12:07;98285.41;;;10.75;55.87
38780;BME280;29273;49.962;9.768;2024-02-26T10:14:34;98288.84;;;10.76;55.59
38780;BME280;29273;49.962;9.768;2024-02-26T10:17:00;98290.22;;;10.78;55.67
38780;BME280;29273;49.962;9.768;2024-02-26T10:19:30;98300.19;;;10.88;56.39
38780;BME280;29273;49.962;9.768;2024-02-26T10:22:00;98300.75;;;10.90;56.50
38780;BME280;29273;49.962;9.768;2024-02-26T10:24:26;98301.78;;;10.89;55.58
38780;BME280;29273;49.962;9.768;2024-02-26T10:26:52;98303.72;;;10.93;55.51
38780;BME280;29273;49.962;9.768;2024-02-26T10:29:20;98310.69;;;11.00;55.39
38780;BME280;29273;49.962;9.768;2024-02-26T10:31:46;98309.41;;;11.02;55.22
38780;BME280;29273;49.962;9.768;2024-02-26T10:34:11;98324.34;;;11.08;55.01
38780;BME280;29273;49.962;9.768;2024-02-26T10:36:38;98328.91;;;11.13;54.68
38780;BME280;29273;49.962;9.768;2024-02-26T10:39:06;98316.00;;;11.17;54.84
38780;BME280;29273;49.962;9.768;2024-02-26T10:41:35;98325.94;;;11.26;55.79
38780;BME280;29273;49.962;9.768;2024-02-26T10:44:00;98325.94;;;11.26;55.09
38780;BME280;29273;49.962;9.768;2024-02-26T10:46:26;98325.22;;;11.31;55.19
38780;BME280;29273;49.962;9.768;2024-02-26T10:48:52;98328.75;;;11.37;55.12
38780;BME280;29273;49.962;9.768;2024-02-26T10:51:29;98314.84;;;11.46;55.91
38780;BME280;29273;49.962;9.768;2024-02-26T10:53:57;98315.06;;;11.45;54.98
38780;BME280;29273;49.962;9.768;2024-02-26T10:56:28;98318.69;;;11.56;55.23
38780;BME280;29273;49.962;9.768;2024-02-26T10:58:58;98324.28;;;11.59;54.86
38780;BME280;29273;49.962;9.768;2024-02-26T11:01:24;98317.38;;;11.58;54.62
38780;BME280;29273;49.962;9.768;2024-02-26T11:03:52;98315.34;;;11.65;53.90
38780;BME280;29273;49.962;9.768;2024-02-26T11:06:21;98309.63;;;11.74;55.14
38780;BME280;29273;49.962;9.768;2024-02-26T11:08:50;98311.53;;;11.78;55.36
38780;BME280;29273;49.962;9.768;2024-02-26T11:11:20;98314.25;;;11.83;54.89
38780;BME280;29273;49.962;9.768;2024-02-26T11:13:47;98315.06;;;11.84;53.94
38780;BME280;29273;49.962;9.768;2024-02-26T11:16:20;98318.38;;;11.91;54.90
38780;BME280;29273;49.962;9.768;2024-02-26T11:18:48;98305.91;;;11.92;53.95
38780;BME280;29273;49.962;9.768;2024-02-26T11:21:15;98299.63;;;11.98;54.34
38780;BME280;29273;49.962;9.768;2024-02-26T11:23:42;98302.25;;;11.98;53.43
38780;BME280;29273;49.962;9.768;2024-02-26T11:26:09;98309.25;;;12.04;54.29
38780;BME280;29273;49.962;9.768;2024-02-26T11:28:36;98303.66;;;12.06;54.10
38780;BME280;29273;49.962;9.768;2024-02-26T11:31:04;98302.94;;;12.10;53.75
38780;BME280;29273;49.962;9.768;2024-02-26T11:33:30;98298.16;;;12.12;53.93
38780;BME280;29273;49.962;9.768;2024-02-26T11:35:57;98297.72;;;12.20;53.56
38780;BME280;29273;49.962;9.768;2024-02-26T11:38:26;98295.69;;;12.28;54.12
38780;BME280;29273;49.962;9.768;2024-02-26T11:40:53;98290.69;;;12.31;53.77
38780;BME280;29273;49.962;9.768;2024-02-26T11:43:23;98299.53;;;12.42;54.14
38780;BME280;29273;49.962;9.768;2024-02-26T11:45:49;98303.03;;;12.43;53.56
38780;BME280;29273;49.962;9.768;2024-02-26T11:48:22;98307.63;;;12.52;53.77
38780;BME280;29273;49.962;9.768;2024-02-26T11:50:55;98305.81;;;12.58;54.01
38780;BME280;29273;49.962;9.768;2024-02-26T11:55:46;98305.81;;;12.58;51.66
38780;BME280;29273;49.962;9.768;2024-02-26T11:58:11;98292.81;;;12.62;51.61
38780;BME280;29273;49.962;9.768;2024-02-26T12:00:40;98291.84;;;12.68;52.66
38780;BME280;29273;49.962;9.768;2024-02-26T12:03:05;98288.63;;;12.66;51.20
38780;BME280;29273;49.962;9.768;2024-02-26T12:05:34;98290.75;;;12.69;51.83
38780;BME280;29273;49.962;9.768;2024-02-26T12:08:08;98293.47;;;12.74;53.11
38780;BME280;29273;49.962;9.768;2024-02-26T12:10:38;98288.97;;;12.74;52.46
38780;BME280;29273;49.962;9.768;2024-02-26T12:18:09;98304.09;;;12.74;51.55
38780;BME280;29273;49.962;9.768;2024-02-26T12:20:39;98289.78;;;12.80;52.29
38780;BME280;29273;49.962;9.768;2024-02-26T12:23:05;98300.66;;;12.78;51.19
38780;BME280;29273;49.962;9.768;2024-02-26T12:25:31;98304.19;;;12.84;51.48
38780;BME280;29273;49.962;9.768;2024-02-26T12:27:58;98310.84;;;12.87;51.03
38780;BME280;29273;49.962;9.768;2024-02-26T12:30:24;98309.53;;;12.89;50.78
38780;BME280;29273;49.962;9.768;2024-02-26T12:33:00;98306.94;;;12.94;50.98
38780;BME280;29273;49.962;9.768;2024-02-26T12:35:27;98322.91;;;13.00;51.23
38780;BME280;29273;49.962;9.768;2024-02-26T12:37:53;98321.09;;;13.05;50.88
38780;BME280;29273;49.962;9.768;2024-02-26T12:40:20;98324.03;;;13.09;50.69
38780;BME280;29273;49.962;9.768;2024-02-26T12:42:46;98323.28;;;13.13;49.92
38780;BME280;29273;49.962;9.768;2024-02-26T12:45:12;98332.09;;;13.19;51.22
38780;BME280;29273;49.962;9.768;2024-02-26T12:47:39;98323.09;;;13.25;50.96
38780;BME280;29273;49.962;9.768;2024-02-26T12:50:05;98317.25;;;13.28;50.78
38780;BME280;29273;49.962;9.768;2024-02-26T12:52:35;98324.28;;;13.40;52.28
38780;BME280;29273;49.962;9.768;2024-02-26T12:55:04;98330.44;;;13.45;52.52
38780;BME280;29273;49.962;9.768;2024-02-26T12:57:36;98336.06;;;13.49;51.98
38780;BME280;29273;49.962;9.768;2024-02-26T13:00:03;98331.25;;;13.46;51.02
38780;BME280;29273;49.962;9.768;2024-02-26T13:02:30;98329.94;;;13.54;50.61
38780;BME280;29273;49.962;9.768;2024-02-26T13:04:57;98330.50;;;13.56;50.51
38780;BME280;29273;49.962;9.768;2024-02-26T13:07:23;98333.47;;;13.59;51.27
38780;BME280;29273;49.962;9.768;2024-02-26T13:09:49;98331.06;;;13.63;50.07